sensor_id;sensor_type;location;lat;lon;timestamp;temperature;humidity
36384;DHT22;22418;51.210;6.976;2023-11-19T00:01:42;11.10;99.90
36384;DHT22;22418;51.210;6.976;2023-11-19T00:04:13;11.20;99.90
36384;DHT22;22418;51.210;6.976;2023-11-19T00:06:44;11.20;99.90
36384;DHT22;22418;51.210;6.976;2023-11-19T00:09:14;11.20;99.90
36384;DHT22;22418;51.210;6.976;2023-11-19T00:11:47;11.20;99.90
36384;DHT22;22418;51.210;6.976;2023-11-19T00:14:17;11.20;99.90
36384;DHT22;22418;51.210;6.976;2023-11-19T00:16:48;11.20;99.90
36384;DHT22;22418;51.210;6.976;2023-11-19T00:19:21;11.10;99.90
36384;DHT22;22418;51.210;6.976;2023-11-19T00:21:52;11.30;99.90
36384;DHT22;22418;51.210;6.976;2023-11-19T00:24:23;11.30;99.90
36384;DHT22;22418;51.210;6.976;2023-11-19T00:26:53;11.30;99.90
36384;DHT22;22418;51.210;6.976;2023-11-19T00:29:24;11.30;99.90
36384;DHT22;22418;51.210;6.976;2023-11-19T00:31:55;11.30;99.90
36384;DHT22;22418;51.210;6.976;2023-11-19T00:34:25;11.40;99.90
36384;DHT22;22418;51.210;6.976;2023-11-19T00:36:56;11.40;99.90
36384;DHT22;22418;51.210;6.976;2023-11-19T00:39:26;11.30;99.90
36384;DHT22;22418;51.210;6.976;2023-11-19T00:41:57;11.40;99.90
36384;DHT22;22418;51.210;6.976;2023-11-19T00:44:27;11.40;99.90
36384;DHT22;22418;51.210;6.976;2023-11-19T00:46:58;11.50;99.90
36384;DHT22;22418;51.210;6.976;2023-11-19T00:49:30;11.50;99.90
36384;DHT22;22418;51.210;6.976;2023-11-19T00:52:03;11.60;99.90
36384;DHT22;22418;51.210;6.976;2023-11-19T00:54:34;11.50;99.90
36384;DHT22;22418;51.210;6.976;2023-11-19T00:57:04;11.50;99.90
36384;DHT22;22418;51.210;6.976;2023-11-19T00:59:36;11.50;99.90
36384;DHT22;22418;51.210;6.976;2023-11-19T01:02:06;11.60;99.90
36384;DHT22;22418;51.210;6.976;2023-11-19T01:04:37;11.60;99.90
36384;DHT22;22418;51.210;6.976;2023-11-19T01:07:08;11.60;99.90
36384;DHT22;22418;51.210;6.976;2023-11-19T01:09:43;11.60;99.90
36384;DHT22;22418;51.210;6.976;2023-11-19T01:12:13;11.70;99.90
36384;DHT22;22418;51.210;6.976;2023-11-19T01:14:44;11.60;99.90
36384;DHT22;22418;51.210;6.976;2023-11-19T01:17:14;11.60;99.90
36384;DHT22;22418;51.210;6.976;2023-11-19T01:19:45;11.60;99.90
36384;DHT22;22418;51.210;6.976;2023-11-19T01:22:16;11.60;99.90
36384;DHT22;22418;51.210;6.976;2023-11-19T01:24:47;11.70;99.90
36384;DHT22;22418;51.210;6.976;2023-11-19T01:27:17;11.70;99.90
36384;DHT22;22418;51.210;6.976;2023-11-19T01:29:48;11.70;99.90
36384;DHT22;22418;51.210;6.976;2023-11-19T01:32:18;11.60;99.90
36384;DHT22;22418;51.210;6.976;2023-11-19T01:34:49;11.70;99.90
36384;DHT22;22418;51.210;6.976;2023-11-19T01:37:19;11.80;99.90
36384;DHT22;22418;51.210;6.976;2023-11-19T01:39:50;11.90;99.90
36384;DHT22;22418;51.210;6.976;2023-11-19T01:42:21;11.80;99.90
36384;DHT22;22418;51.210;6.976;2023-11-19T01:44:58;11.80;99.90
36384;DHT22;22418;51.210;6.976;2023-11-19T01:47:30;11.90;99.90
36384;DHT22;22418;51.210;6.976;2023-11-19T01:50:02;11.80;99.90
36384;DHT22;22418;51.210;6.976;2023-11-19T01:52:37;11.90;99.90
36384;DHT22;22418;51.210;6.976;2023-11-19T01:55:09;11.90;99.90
36384;DHT22;22418;51.210;6.976;2023-11-19T01:57:40;12.00;99.90
36384;DHT22;22418;51.210;6.976;2023-11-19T02:00:12;12.00;99.90
36384;DHT22;22418;51.210;6.976;2023-11-19T02:02:44;12.00;99.90
36384;DHT22;22418;51.210;6.976;2023-11-19T02:05:16;12.00;99.90
36384;DHT22;22418;51.210;6.976;2023-11-19T02:07:47;12.10;99.90
36384;DHT22;22418;51.210;6.976;2023-11-19T02:10:18;12.10;99.90
36384;DHT22;22418;51.210;6.976;2023-11-19T02:12:49;12.10;99.90
36384;DHT22;22418;51.210;6.976;2023-11-19T02:15:20;12.10;99.90
36384;DHT22;22418;51.210;6.976;2023-11-19T02:17:51;12.10;99.90
36384;DHT22;22418;51.210;6.976;2023-11-19T02:20:21;12.20;99.90
36384;DHT22;22418;51.210;6.976;2023-11-19T02:22:52;12.20;99.90
36384;DHT22;22418;51.210;6.976;2023-11-19T02:25:29;12.20;99.90
36384;DHT22;22418;51.210;6.976;2023-11-19T02:28:01;12.20;99.90
36384;DHT22;22418;51.210;6.976;2023-11-19T02:30:32;12.20;99.90
36384;DHT22;22418;51.210;6.976;2023-11-19T02:33:03;12.30;99.90
36384;DHT22;22418;51.210;6.976;2023-11-19T02:35:35;12.30;99.90
36384;DHT22;22418;51.210;6.976;2023-11-19T02:38:06;12.30;99.90
36384;DHT22;22418;51.210;6.976;2023-11-19T02:40:37;12.40;99.90
36384;DHT22;22418;51.210;6.976;2023-11-19T02:43:08;12.30;99.90
36384;DHT22;22418;51.210;6.976;2023-11-19T02:45:39;12.30;99.90
36384;DHT22;22418;51.210;6.976;2023-11-19T02:48:09;12.30;99.90
36384;DHT22;22418;51.210;6.976;2023-11-19T02:50:40;12.30;99.90
36384;DHT22;22418;51.210;6.976;2023-11-19T02:53:11;12.30;99.90
36384;DHT22;22418;51.210;6.976;2023-11-19T02:55:43;12.30;99.90
36384;DHT22;22418;51.210;6.976;2023-11-19T02:58:18;12.40;99.90
36384;DHT22;22418;51.210;6.976;2023-11-19T03:00:54;12.40;99.90
36384;DHT22;22418;51.210;6.976;2023-11-19T03:03:28;12.50;99.90
36384;DHT22;22418;51.210;6.976;2023-11-19T03:06:01;12.50;99.90
36384;DHT22;22418;51.210;6.976;2023-11-19T03:08:35;12.50;99.90
36384;DHT22;22418;51.210;6.976;2023-11-19T03:11:06;12.50;99.90
36384;DHT22;22418;51.210;6.976;2023-11-19T03:13:37;12.50;99.90
36384;DHT22;22418;51.210;6.976;2023-11-19T03:16:07;12.60;99.90
36384;DHT22;22418;51.210;6.976;2023-11-19T03:18:38;12.50;99.90
36384;DHT22;22418;51.210;6.976;2023-11-19T03:21:09;12.50;99.90
36384;DHT22;22418;51.210;6.976;2023-11-19T03:23:40;12.50;99.90
36384;DHT22;22418;51.210;6.976;2023-11-19T03:26:11;12.50;99.90
36384;DHT22;22418;51.210;6.976;2023-11-19T03:28:41;12.60;99.90
36384;DHT22;22418;51.210;6.976;2023-11-19T03:31:12;12.60;99.90
36384;DHT22;22418;51.210;6.976;2023-11-19T03:33:43;12.60;99.90
36384;DHT22;22418;51.210;6.976;2023-11-19T03:36:13;12.60;99.90
36384;DHT22;22418;51.210;6.976;2023-11-19T03:38:44;12.60;99.90
36384;DHT22;22418;51.210;6.976;2023-11-19T03:41:15;12.60;99.90
36384;DHT22;22418;51.210;6.976;2023-11-19T03:43:46;12.60;99.90
36384;DHT22;22418;51.210;6.976;2023-11-19T03:46:19;12.70;99.90
36384;DHT22;22418;51.210;6.976;2023-11-19T03:48:50;12.50;99.90
36384;DHT22;22418;51.210;6.976;2023-11-19T03:51:20;12.60;99.90
36384;DHT22;22418;51.210;6.976;2023-11-19T03:53:51;12.60;99.90
36384;DHT22;22418;51.210;6.976;2023-11-19T03:56:21;12.70;99.90
36384;DHT22;22418;51.210;6.976;2023-11-19T03:58:52;12.60;99.90
36384;DHT22;22418;51.210;6.976;2023-11-19T04:01:23;12.70;99.90
36384;DHT22;22418;51.210;6.976;2023-11-19T04:03:53;12.70;99.90
36384;DHT22;22418;51.210;6.976;2023-11-19T04:06:26;12.70;99.90
36384;DHT22;22418;51.210;6.976;2023-11-19T04:08:56;12.70;99.90
36384;DHT22;22418;51.210;6.976;2023-11-19T04:11:28;12.70;99.90
36384;DHT22;22418;51.210;6.976;2023-11-19T04:13:58;12.70;99.90
36384;DHT22;22418;51.210;6.976;2023-11-19T04:16:29;12.70;99.90
36384;DHT22;22418;51.210;6.976;2023-11-19T04:18:59;12.70;99.90
36384;DHT22;22418;51.210;6.976;2023-11-19T04:21:30;12.60;99.90
36384;DHT22;22418;51.210;6.976;2023-11-19T04:24:01;12.60;99.90
36384;DHT22;22418;51.210;6.976;2023-11-19T04:26:32;12.60;99.90
36384;DHT22;22418;51.210;6.976;2023-11-19T04:29:02;12.60;99.90
36384;DHT22;22418;51.210;6.976;2023-11-19T04:31:33;12.60;99.90
36384;DHT22;22418;51.210;6.976;2023-11-19T04:34:03;12.60;99.90
36384;DHT22;22418;51.210;6.976;2023-11-19T04:36:34;12.70;99.90
36384;DHT22;22418;51.210;6.976;2023-11-19T04:39:05;12.70;99.90
36384;DHT22;22418;51.210;6.976;2023-11-19T04:41:47;12.70;99.90
36384;DHT22;22418;51.210;6.976;2023-11-19T04:44:19;12.70;99.90
36384;DHT22;22418;51.210;6.976;2023-11-19T04:46:49;12.70;99.90
36384;DHT22;22418;51.210;6.976;2023-11-19T04:49:20;12.70;99.90
36384;DHT22;22418;51.210;6.976;2023-11-19T04:51:51;12.80;99.90
36384;DHT22;22418;51.210;6.976;2023-11-19T04:54:21;12.70;99.90
36384;DHT22;22418;51.210;6.976;2023-11-19T04:56:52;12.70;99.90
36384;DHT22;22418;51.210;6.976;2023-11-19T04:59:22;12.80;99.90
36384;DHT22;22418;51.210;6.976;2023-11-19T05:01:53;12.70;99.90
36384;DHT22;22418;51.210;6.976;2023-11-19T05:04:23;12.70;99.90
36384;DHT22;22418;51.210;6.976;2023-11-19T05:06:54;12.70;99.90
36384;DHT22;22418;51.210;6.976;2023-11-19T05:09:25;12.70;99.90
36384;DHT22;22418;51.210;6.976;2023-11-19T05:11:55;12.70;99.90
36384;DHT22;22418;51.210;6.976;2023-11-19T05:14:26;12.70;99.90
36384;DHT22;22418;51.210;6.976;2023-11-19T05:16:56;12.70;99.90
36384;DHT22;22418;51.210;6.976;2023-11-19T05:19:27;12.60;99.90
36384;DHT22;22418;51.210;6.976;2023-11-19T05:21:57;12.70;99.90
36384;DHT22;22418;51.210;6.976;2023-11-19T05:24:28;12.70;99.90
36384;DHT22;22418;51.210;6.976;2023-11-19T05:26:59;12.60;99.90
36384;DHT22;22418;51.210;6.976;2023-11-19T05:29:30;12.70;99.90
36384;DHT22;22418;51.210;6.976;2023-11-19T05:32:00;12.70;99.90
36384;DHT22;22418;51.210;6.976;2023-11-19T05:34:31;12.70;99.90
36384;DHT22;22418;51.210;6.976;2023-11-19T05:37:02;12.70;99.90
36384;DHT22;22418;51.210;6.976;2023-11-19T05:39:33;12.60;99.90
36384;DHT22;22418;51.210;6.976;2023-11-19T05:42:03;12.60;99.90
36384;DHT22;22418;51.210;6.976;2023-11-19T05:44:34;12.60;99.90
36384;DHT22;22418;51.210;6.976;2023-11-19T05:47:04;12.60;99.90
36384;DHT22;22418;51.210;6.976;2023-11-19T05:49:35;12.60;99.90
36384;DHT22;22418;51.210;6.976;2023-11-19T05:52:06;12.60;99.90
36384;DHT22;22418;51.210;6.976;2023-11-19T05:54:38;12.60;99.90
36384;DHT22;22418;51.210;6.976;2023-11-19T05:57:09;12.60;99.90
36384;DHT22;22418;51.210;6.976;2023-11-19T05:59:39;12.60;99.90
36384;DHT22;22418;51.210;6.976;2023-11-19T06:02:10;12.60;99.90
36384;DHT22;22418;51.210;6.976;2023-11-19T06:04:40;12.70;99.90
36384;DHT22;22418;51.210;6.976;2023-11-19T06:07:14;12.60;99.90
36384;DHT22;22418;51.210;6.976;2023-11-19T06:09:45;12.60;99.90
36384;DHT22;22418;51.210;6.976;2023-11-19T06:12:16;12.60;99.90
36384;DHT22;22418;51.210;6.976;2023-11-19T06:14:47;12.60;99.90
36384;DHT22;22418;51.210;6.976;2023-11-19T06:17:17;12.60;99.90
36384;DHT22;22418;51.210;6.976;2023-11-19T06:19:50;12.70;99.90
36384;DHT22;22418;51.210;6.976;2023-11-19T06:22:21;12.70;99.90
36384;DHT22;22418;51.210;6.976;2023-11-19T06:24:51;12.70;99.90
36384;DHT22;22418;51.210;6.976;2023-11-19T06:27:22;12.60;99.90
36384;DHT22;22418;51.210;6.976;2023-11-19T06:29:53;12.70;99.90
36384;DHT22;22418;51.210;6.976;2023-11-19T06:32:24;12.70;99.90
36384;DHT22;22418;51.210;6.976;2023-11-19T06:34:55;12.60;99.90
36384;DHT22;22418;51.210;6.976;2023-11-19T06:37:26;12.60;99.90
36384;DHT22;22418;51.210;6.976;2023-11-19T06:39:57;12.50;99.90
36384;DHT22;22418;51.210;6.976;2023-11-19T06:42:29;12.40;99.90
36384;DHT22;22418;51.210;6.976;2023-11-19T06:44:59;12.40;99.90
36384;DHT22;22418;51.210;6.976;2023-11-19T06:47:30;12.30;99.90
36384;DHT22;22418;51.210;6.976;2023-11-19T06:50:00;12.30;99.90
36384;DHT22;22418;51.210;6.976;2023-11-19T06:52:31;12.20;99.90
36384;DHT22;22418;51.210;6.976;2023-11-19T06:55:02;12.30;99.90
36384;DHT22;22418;51.210;6.976;2023-11-19T06:57:32;12.20;99.90
36384;DHT22;22418;51.210;6.976;2023-11-19T07:00:04;12.20;99.90
36384;DHT22;22418;51.210;6.976;2023-11-19T07:02:36;12.20;99.90
36384;DHT22;22418;51.210;6.976;2023-11-19T07:05:06;12.30;99.90
36384;DHT22;22418;51.210;6.976;2023-11-19T07:07:38;12.20;99.90
36384;DHT22;22418;51.210;6.976;2023-11-19T07:10:10;12.10;99.90
36384;DHT22;22418;51.210;6.976;2023-11-19T07:12:41;12.10;99.90
36384;DHT22;22418;51.210;6.976;2023-11-19T07:15:12;12.00;99.90
36384;DHT22;22418;51.210;6.976;2023-11-19T07:17:43;12.10;99.90
36384;DHT22;22418;51.210;6.976;2023-11-19T07:20:15;12.10;99.90
36384;DHT22;22418;51.210;6.976;2023-11-19T07:22:46;12.00;99.90
36384;DHT22;22418;51.210;6.976;2023-11-19T07:25:16;12.10;99.90
36384;DHT22;22418;51.210;6.976;2023-11-19T07:27:48;12.10;99.90
36384;DHT22;22418;51.210;6.976;2023-11-19T07:30:19;12.10;99.90
36384;DHT22;22418;51.210;6.976;2023-11-19T07:32:50;12.10;99.90
36384;DHT22;22418;51.210;6.976;2023-11-19T07:35:20;12.10;99.90
36384;DHT22;22418;51.210;6.976;2023-11-19T07:37:51;12.10;99.90
36384;DHT22;22418;51.210;6.976;2023-11-19T07:40:22;12.20;99.90
36384;DHT22;22418;51.210;6.976;2023-11-19T07:42:52;12.20;99.90
36384;DHT22;22418;51.210;6.976;2023-11-19T07:45:24;12.20;99.90
36384;DHT22;22418;51.210;6.976;2023-11-19T07:47:54;12.20;99.90
36384;DHT22;22418;51.210;6.976;2023-11-19T07:50:25;12.20;99.90
36384;DHT22;22418;51.210;6.976;2023-11-19T07:52:55;12.20;99.90
36384;DHT22;22418;51.210;6.976;2023-11-19T07:55:26;12.30;99.90
36384;DHT22;22418;51.210;6.976;2023-11-19T07:57:57;12.40;99.90
36384;DHT22;22418;51.210;6.976;2023-11-19T08:00:28;12.60;99.90
36384;DHT22;22418;51.210;6.976;2023-11-19T08:02:58;12.70;99.90
36384;DHT22;22418;51.210;6.976;2023-11-19T08:05:29;12.80;99.90
36384;DHT22;22418;51.210;6.976;2023-11-19T08:08:00;12.80;99.90
36384;DHT22;22418;51.210;6.976;2023-11-19T08:10:30;13.00;99.90
36384;DHT22;22418;51.210;6.976;2023-11-19T08:13:01;13.00;99.90
36384;DHT22;22418;51.210;6.976;2023-11-19T08:15:31;13.10;99.90
36384;DHT22;22418;51.210;6.976;2023-11-19T08:18:02;13.20;99.90
36384;DHT22;22418;51.210;6.976;2023-11-19T08:20:33;13.20;99.90
36384;DHT22;22418;51.210;6.976;2023-11-19T08:23:04;13.30;99.90
36384;DHT22;22418;51.210;6.976;2023-11-19T08:25:35;13.30;99.90
36384;DHT22;22418;51.210;6.976;2023-11-19T08:28:06;13.30;99.90
36384;DHT22;22418;51.210;6.976;2023-11-19T08:30:36;13.30;99.90
36384;DHT22;22418;51.210;6.976;2023-11-19T08:33:07;13.30;99.90
36384;DHT22;22418;51.210;6.976;2023-11-19T08:35:37;13.20;99.90
36384;DHT22;22418;51.210;6.976;2023-11-19T08:38:08;13.30;99.90
36384;DHT22;22418;51.210;6.976;2023-11-19T08:40:38;13.20;99.90
36384;DHT22;22418;51.210;6.976;2023-11-19T08:43:09;13.20;99.90
36384;DHT22;22418;51.210;6.976;2023-11-19T08:45:40;13.20;99.90
36384;DHT22;22418;51.210;6.976;2023-11-19T08:48:10;13.10;99.90
36384;DHT22;22418;51.210;6.976;2023-11-19T08:50:41;13.20;99.90
36384;DHT22;22418;51.210;6.976;2023-11-19T08:53:11;13.20;99.90
36384;DHT22;22418;51.210;6.976;2023-11-19T08:55:42;13.20;99.90
36384;DHT22;22418;51.210;6.976;2023-11-19T08:58:12;13.30;99.90
36384;DHT22;22418;51.210;6.976;2023-11-19T09:00:43;13.40;99.90
36384;DHT22;22418;51.210;6.976;2023-11-19T09:03:14;13.40;99.90
36384;DHT22;22418;51.210;6.976;2023-11-19T09:05:44;13.50;99.90
36384;DHT22;22418;51.210;6.976;2023-11-19T09:08:15;13.50;99.90
36384;DHT22;22418;51.210;6.976;2023-11-19T09:10:45;13.60;99.90
36384;DHT22;22418;51.210;6.976;2023-11-19T09:13:16;13.50;99.90
36384;DHT22;22418;51.210;6.976;2023-11-19T09:15:46;13.40;99.90
36384;DHT22;22418;51.210;6.976;2023-11-19T09:18:17;13.50;99.90
36384;DHT22;22418;51.210;6.976;2023-11-19T09:20:47;13.50;99.90
36384;DHT22;22418;51.210;6.976;2023-11-19T09:23:18;13.60;99.90
36384;DHT22;22418;51.210;6.976;2023-11-19T09:25:49;13.50;99.90
36384;DHT22;22418;51.210;6.976;2023-11-19T09:28:19;13.60;99.90
36384;DHT22;22418;51.210;6.976;2023-11-19T09:30:50;13.60;99.90
36384;DHT22;22418;51.210;6.976;2023-11-19T09:33:20;13.60;99.90
36384;DHT22;22418;51.210;6.976;2023-11-19T09:35:51;13.60;99.90
36384;DHT22;22418;51.210;6.976;2023-11-19T09:38:21;13.70;99.90
36384;DHT22;22418;51.210;6.976;2023-11-19T09:40:52;13.70;99.90
36384;DHT22;22418;51.210;6.976;2023-11-19T09:43:23;13.70;99.90
36384;DHT22;22418;51.210;6.976;2023-11-19T09:45:55;13.80;99.90
36384;DHT22;22418;51.210;6.976;2023-11-19T09:48:26;13.90;99.90
36384;DHT22;22418;51.210;6.976;2023-11-19T09:50:58;14.00;99.90
36384;DHT22;22418;51.210;6.976;2023-11-19T09:53:29;14.00;99.90
36384;DHT22;22418;51.210;6.976;2023-11-19T09:56:03;14.00;99.90
36384;DHT22;22418;51.210;6.976;2023-11-19T09:58:35;13.90;99.90
36384;DHT22;22418;51.210;6.976;2023-11-19T10:01:05;13.80;99.90
36384;DHT22;22418;51.210;6.976;2023-11-19T10:03:41;13.70;99.90
36384;DHT22;22418;51.210;6.976;2023-11-19T10:06:14;13.70;99.90
36384;DHT22;22418;51.210;6.976;2023-11-19T10:08:45;13.80;99.90
36384;DHT22;22418;51.210;6.976;2023-11-19T10:11:17;13.90;99.90
36384;DHT22;22418;51.210;6.976;2023-11-19T10:13:47;14.00;99.90
36384;DHT22;22418;51.210;6.976;2023-11-19T10:16:19;14.00;99.90
36384;DHT22;22418;51.210;6.976;2023-11-19T10:18:50;13.90;99.90
36384;DHT22;22418;51.210;6.976;2023-11-19T10:21:21;13.90;99.90
36384;DHT22;22418;51.210;6.976;2023-11-19T10:23:53;14.10;99.90
36384;DHT22;22418;51.210;6.976;2023-11-19T10:26:26;14.10;99.90
36384;DHT22;22418;51.210;6.976;2023-11-19T10:28:57;14.00;99.90
36384;DHT22;22418;51.210;6.976;2023-11-19T10:31:27;13.90;99.90
36384;DHT22;22418;51.210;6.976;2023-11-19T10:33:58;13.80;99.90
36384;DHT22;22418;51.210;6.976;2023-11-19T10:36:38;13.80;99.90
36384;DHT22;22418;51.210;6.976;2023-11-19T10:39:11;13.80;99.90
36384;DHT22;22418;51.210;6.976;2023-11-19T10:41:41;13.90;99.90
36384;DHT22;22418;51.210;6.976;2023-11-19T10:44:31;14.00;99.90
36384;DHT22;22418;51.210;6.976;2023-11-19T10:47:02;14.10;99.90
36384;DHT22;22418;51.210;6.976;2023-11-19T10:49:36;14.20;99.90
36384;DHT22;22418;51.210;6.976;2023-11-19T10:52:08;14.20;99.90
36384;DHT22;22418;51.210;6.976;2023-11-19T10:54:41;14.20;99.90
36384;DHT22;22418;51.210;6.976;2023-11-19T10:57:21;14.10;99.90
36384;DHT22;22418;51.210;6.976;2023-11-19T11:00:00;14.10;99.90
36384;DHT22;22418;51.210;6.976;2023-11-19T11:02:35;14.10;99.90
36384;DHT22;22418;51.210;6.976;2023-11-19T11:05:10;14.10;99.90
36384;DHT22;22418;51.210;6.976;2023-11-19T11:07:44;14.10;99.90
36384;DHT22;22418;51.210;6.976;2023-11-19T11:10:16;14.10;99.90
36384;DHT22;22418;51.210;6.976;2023-11-19T11:12:47;14.20;99.90
36384;DHT22;22418;51.210;6.976;2023-11-19T11:15:21;14.10;99.90
36384;DHT22;22418;51.210;6.976;2023-11-19T11:17:55;14.20;99.90
36384;DHT22;22418;51.210;6.976;2023-11-19T11:20:36;14.30;99.90
36384;DHT22;22418;51.210;6.976;2023-11-19T11:38:23;14.20;99.90
36384;DHT22;22418;51.210;6.976;2023-11-19T11:41:17;14.30;99.90
36384;DHT22;22418;51.210;6.976;2023-11-19T11:43:52;14.40;99.90
36384;DHT22;22418;51.210;6.976;2023-11-19T11:49:06;14.50;99.90
36384;DHT22;22418;51.210;6.976;2023-11-19T11:59:43;14.50;99.90
36384;DHT22;22418;51.210;6.976;2023-11-19T12:02:17;14.50;99.90
36384;DHT22;22418;51.210;6.976;2023-11-19T12:04:50;14.40;99.90
36384;DHT22;22418;51.210;6.976;2023-11-19T12:07:23;14.30;99.90
36384;DHT22;22418;51.210;6.976;2023-11-19T12:10:06;14.30;99.90
36384;DHT22;22418;51.210;6.976;2023-11-19T12:12:38;14.40;99.90
36384;DHT22;22418;51.210;6.976;2023-11-19T12:15:10;14.30;99.90
36384;DHT22;22418;51.210;6.976;2023-11-19T12:17:49;14.30;99.90
36384;DHT22;22418;51.210;6.976;2023-11-19T12:20:24;14.30;99.90
36384;DHT22;22418;51.210;6.976;2023-11-19T12:22:55;14.30;99.90
36384;DHT22;22418;51.210;6.976;2023-11-19T12:25:26;14.20;99.90
36384;DHT22;22418;51.210;6.976;2023-11-19T12:27:56;14.40;99.90
36384;DHT22;22418;51.210;6.976;2023-11-19T12:30:27;14.40;99.90
36384;DHT22;22418;51.210;6.976;2023-11-19T12:32:59;14.60;99.90
36384;DHT22;22418;51.210;6.976;2023-11-19T12:35:29;14.40;99.90
36384;DHT22;22418;51.210;6.976;2023-11-19T12:38:00;14.60;99.90
36384;DHT22;22418;51.210;6.976;2023-11-19T12:40:31;14.50;99.90
36384;DHT22;22418;51.210;6.976;2023-11-19T12:43:01;14.40;99.90
36384;DHT22;22418;51.210;6.976;2023-11-19T12:45:36;14.30;99.90
36384;DHT22;22418;51.210;6.976;2023-11-19T12:48:08;14.30;99.90
36384;DHT22;22418;51.210;6.976;2023-11-19T12:50:56;14.20;99.90
36384;DHT22;22418;51.210;6.976;2023-11-19T12:53:50;14.20;99.90
36384;DHT22;22418;51.210;6.976;2023-11-19T12:56:23;14.10;99.90
36384;DHT22;22418;51.210;6.976;2023-11-19T12:58:53;14.00;99.90
36384;DHT22;22418;51.210;6.976;2023-11-19T13:01:24;14.10;99.90
36384;DHT22;22418;51.210;6.976;2023-11-19T13:03:54;14.10;99.90
36384;DHT22;22418;51.210;6.976;2023-11-19T13:06:25;13.90;99.90
36384;DHT22;22418;51.210;6.976;2023-11-19T13:08:55;14.00;99.90
36384;DHT22;22418;51.210;6.976;2023-11-19T13:11:34;14.10;99.90
36384;DHT22;22418;51.210;6.976;2023-11-19T13:14:06;14.10;99.90
36384;DHT22;22418;51.210;6.976;2023-11-19T13:16:39;14.20;99.90
36384;DHT22;22418;51.210;6.976;2023-11-19T13:19:10;14.30;99.90
36384;DHT22;22418;51.210;6.976;2023-11-19T13:21:40;14.20;99.90
36384;DHT22;22418;51.210;6.976;2023-11-19T13:24:11;14.20;99.90
36384;DHT22;22418;51.210;6.976;2023-11-19T13:26:41;14.20;99.90
36384;DHT22;22418;51.210;6.976;2023-11-19T13:29:12;14.20;99.90
36384;DHT22;22418;51.210;6.976;2023-11-19T13:31:43;14.20;99.90
36384;DHT22;22418;51.210;6.976;2023-11-19T13:34:13;14.20;99.90
36384;DHT22;22418;51.210;6.976;2023-11-19T13:36:44;14.10;99.90
36384;DHT22;22418;51.210;6.976;2023-11-19T13:39:14;14.10;99.90
36384;DHT22;22418;51.210;6.976;2023-11-19T13:41:52;14.20;99.90
36384;DHT22;22418;51.210;6.976;2023-11-19T13:44:23;14.20;99.90
36384;DHT22;22418;51.210;6.976;2023-11-19T13:46:54;14.20;99.90
36384;DHT22;22418;51.210;6.976;2023-11-19T13:49:24;14.30;99.90
36384;DHT22;22418;51.210;6.976;2023-11-19T13:51:55;14.30;99.90
36384;DHT22;22418;51.210;6.976;2023-11-19T13:54:25;14.20;99.90
36384;DHT22;22418;51.210;6.976;2023-11-19T13:56:56;14.10;99.90
36384;DHT22;22418;51.210;6.976;2023-11-19T13:59:31;14.10;99.90
36384;DHT22;22418;51.210;6.976;2023-11-19T14:02:03;14.10;99.90
36384;DHT22;22418;51.210;6.976;2023-11-19T14:04:33;14.10;99.90
36384;DHT22;22418;51.210;6.976;2023-11-19T14:07:04;14.00;99.90
36384;DHT22;22418;51.210;6.976;2023-11-19T14:09:34;14.00;99.90
36384;DHT22;22418;51.210;6.976;2023-11-19T14:12:05;13.90;99.90
36384;DHT22;22418;51.210;6.976;2023-11-19T14:14:36;13.90;99.90
36384;DHT22;22418;51.210;6.976;2023-11-19T14:17:06;13.80;99.90
36384;DHT22;22418;51.210;6.976;2023-11-19T14:19:38;14.10;99.90
36384;DHT22;22418;51.210;6.976;2023-11-19T14:22:09;13.80;99.90
36384;DHT22;22418;51.210;6.976;2023-11-19T14:24:40;13.70;99.90
36384;DHT22;22418;51.210;6.976;2023-11-19T14:27:12;13.70;99.90
36384;DHT22;22418;51.210;6.976;2023-11-19T14:29:43;13.70;99.90
36384;DHT22;22418;51.210;6.976;2023-11-19T14:32:15;13.60;99.90
36384;DHT22;22418;51.210;6.976;2023-11-19T14:34:45;13.80;99.90
36384;DHT22;22418;51.210;6.976;2023-11-19T14:37:16;13.50;99.90
36384;DHT22;22418;51.210;6.976;2023-11-19T14:39:47;13.80;99.90
36384;DHT22;22418;51.210;6.976;2023-11-19T14:42:17;13.70;99.90
36384;DHT22;22418;51.210;6.976;2023-11-19T14:44:48;13.50;99.90
36384;DHT22;22418;51.210;6.976;2023-11-19T14:47:22;13.40;99.90
36384;DHT22;22418;51.210;6.976;2023-11-19T14:49:53;13.30;99.90
36384;DHT22;22418;51.210;6.976;2023-11-19T14:52:23;13.30;99.90
36384;DHT22;22418;51.210;6.976;2023-11-19T14:54:54;13.20;99.90
36384;DHT22;22418;51.210;6.976;2023-11-19T14:57:24;13.10;99.90
36384;DHT22;22418;51.210;6.976;2023-11-19T14:59:55;13.00;99.90
36384;DHT22;22418;51.210;6.976;2023-11-19T15:02:25;13.00;99.90
36384;DHT22;22418;51.210;6.976;2023-11-19T15:04:56;13.00;99.90
36384;DHT22;22418;51.210;6.976;2023-11-19T15:07:26;13.00;99.90
36384;DHT22;22418;51.210;6.976;2023-11-19T15:09:58;12.90;99.90
36384;DHT22;22418;51.210;6.976;2023-11-19T15:12:28;13.10;99.90
36384;DHT22;22418;51.210;6.976;2023-11-19T15:14:59;13.00;99.90
36384;DHT22;22418;51.210;6.976;2023-11-19T15:17:30;13.10;99.90
36384;DHT22;22418;51.210;6.976;2023-11-19T15:20:01;13.10;99.90
36384;DHT22;22418;51.210;6.976;2023-11-19T15:22:32;13.10;99.90
36384;DHT22;22418;51.210;6.976;2023-11-19T15:25:03;13.10;99.90
36384;DHT22;22418;51.210;6.976;2023-11-19T15:27:33;13.10;99.90
36384;DHT22;22418;51.210;6.976;2023-11-19T15:30:05;13.00;99.90
36384;DHT22;22418;51.210;6.976;2023-11-19T15:32:35;13.60;99.90
36384;DHT22;22418;51.210;6.976;2023-11-19T15:35:09;12.90;99.90
36384;DHT22;22418;51.210;6.976;2023-11-19T15:37:41;12.90;99.90
36384;DHT22;22418;51.210;6.976;2023-11-19T15:40:14;12.90;99.90
36384;DHT22;22418;51.210;6.976;2023-11-19T15:42:44;12.90;99.90
36384;DHT22;22418;51.210;6.976;2023-11-19T15:45:16;13.00;99.90
36384;DHT22;22418;51.210;6.976;2023-11-19T15:47:46;12.80;99.90
36384;DHT22;22418;51.210;6.976;2023-11-19T15:50:19;12.90;99.90
36384;DHT22;22418;51.210;6.976;2023-11-19T15:52:49;12.80;99.90
36384;DHT22;22418;51.210;6.976;2023-11-19T15:55:20;12.80;99.90
36384;DHT22;22418;51.210;6.976;2023-11-19T15:57:50;12.80;99.90
36384;DHT22;22418;51.210;6.976;2023-11-19T16:00:21;12.70;99.90
36384;DHT22;22418;51.210;6.976;2023-11-19T16:02:52;12.80;99.90
36384;DHT22;22418;51.210;6.976;2023-11-19T16:05:23;12.90;99.90
36384;DHT22;22418;51.210;6.976;2023-11-19T16:07:54;12.80;99.90
36384;DHT22;22418;51.210;6.976;2023-11-19T16:10:24;12.80;99.90
36384;DHT22;22418;51.210;6.976;2023-11-19T16:12:55;12.70;99.90
36384;DHT22;22418;51.210;6.976;2023-11-19T16:15:25;12.70;99.90
36384;DHT22;22418;51.210;6.976;2023-11-19T16:17:56;12.80;99.90
36384;DHT22;22418;51.210;6.976;2023-11-19T16:20:27;12.80;99.90
36384;DHT22;22418;51.210;6.976;2023-11-19T16:22:58;12.70;99.90